Terminal Aerodrome Forecast
Issued by NWS

Home | Current Version | Previous Version | Text Only | Print | Product List | Glossary On
Versions: 1 2 3 4 5 6 7 8 9 10 11 12 13 14 15 16 17 18 19 20 21 22 23 24 25 26 27 28 29
000
FTUS46 KLOX 230022 AAA
TAFLAX
TAF AMD
KLAX 230022Z 2300/2406 27014KT P6SM BKN008
     FM230200 26009KT 6SM BR BKN007
     FM230500 25006KT 4SM BR OVC005
     FM231000 VRB03KT 1 1/2SM BR OVC003
     FM231500 VRB03KT 3SM BR OVC005
     FM231700 27006KT 6SM HZ OVC008
     FM232000 27012KT P6SM SKC
     FM240300 26007KT P6SM SKC
     FM240500 25005KT 6SM BR BKN008=

USA.gov is the U.S. government's official web portal to all federal, state and local government web resources and services.